sensor_id;sensor_type;location;lat;lon;timestamp;temperature;humidity
18575;DHT22;9417;16.484;102.872;2022-09-09T00:00:21;25.30;99.90
18575;DHT22;9417;16.484;102.872;2022-09-09T00:02:29;25.30;99.90
18575;DHT22;9417;16.484;102.872;2022-09-09T00:04:38;25.40;99.90
18575;DHT22;9417;16.484;102.872;2022-09-09T00:06:55;25.40;99.90
18575;DHT22;9417;16.484;102.872;2022-09-09T00:09:10;25.40;99.90
18575;DHT22;9417;16.484;102.872;2022-09-09T00:11:28;25.40;99.90
18575;DHT22;9417;16.484;102.872;2022-09-09T00:13:41;25.40;99.90
18575;DHT22;9417;16.484;102.872;2022-09-09T00:15:57;25.50;99.90
18575;DHT22;9417;16.484;102.872;2022-09-09T00:18:16;25.50;99.90
18575;DHT22;9417;16.484;102.872;2022-09-09T00:20:29;25.50;99.90
18575;DHT22;9417;16.484;102.872;2022-09-09T00:22:42;25.50;99.90
18575;DHT22;9417;16.484;102.872;2022-09-09T00:24:54;25.50;99.90
18575;DHT22;9417;16.484;102.872;2022-09-09T00:27:04;25.60;99.90
18575;DHT22;9417;16.484;102.872;2022-09-09T00:29:17;25.50;99.90
18575;DHT22;9417;16.484;102.872;2022-09-09T00:31:28;25.60;99.90
18575;DHT22;9417;16.484;102.872;2022-09-09T00:33:36;25.50;99.90
18575;DHT22;9417;16.484;102.872;2022-09-09T00:35:48;25.60;99.90
18575;DHT22;9417;16.484;102.872;2022-09-09T00:37:59;25.60;99.90
18575;DHT22;9417;16.484;102.872;2022-09-09T00:40:23;25.70;99.90
18575;DHT22;9417;16.484;102.872;2022-09-09T00:42:39;25.70;99.90
18575;DHT22;9417;16.484;102.872;2022-09-09T00:44:58;25.70;99.90
18575;DHT22;9417;16.484;102.872;2022-09-09T00:47:17;25.70;99.90
18575;DHT22;9417;16.484;102.872;2022-09-09T00:49:34;25.70;99.90
18575;DHT22;9417;16.484;102.872;2022-09-09T00:51:48;25.70;99.90
18575;DHT22;9417;16.484;102.872;2022-09-09T00:56:38;25.70;99.90
18575;DHT22;9417;16.484;102.872;2022-09-09T00:58:55;25.80;99.90
18575;DHT22;9417;16.484;102.872;2022-09-09T01:01:11;25.80;99.90
18575;DHT22;9417;16.484;102.872;2022-09-09T01:03:25;25.80;99.90
18575;DHT22;9417;16.484;102.872;2022-09-09T01:05:44;25.80;99.90
18575;DHT22;9417;16.484;102.872;2022-09-09T01:07:52;25.80;99.90
18575;DHT22;9417;16.484;102.872;2022-09-09T01:10:03;25.80;99.90
18575;DHT22;9417;16.484;102.872;2022-09-09T01:12:16;25.80;99.90
18575;DHT22;9417;16.484;102.872;2022-09-09T01:14:40;25.80;99.90
18575;DHT22;9417;16.484;102.872;2022-09-09T01:16:53;25.90;99.90
18575;DHT22;9417;16.484;102.872;2022-09-09T01:19:03;25.90;99.90
18575;DHT22;9417;16.484;102.872;2022-09-09T01:21:21;25.90;99.90
18575;DHT22;9417;16.484;102.872;2022-09-09T01:23:45;25.90;99.90
18575;DHT22;9417;16.484;102.872;2022-09-09T01:26:15;25.90;99.90
18575;DHT22;9417;16.484;102.872;2022-09-09T01:28:27;25.90;99.90
18575;DHT22;9417;16.484;102.872;2022-09-09T01:30:41;25.80;99.90
18575;DHT22;9417;16.484;102.872;2022-09-09T01:32:55;25.80;99.90
18575;DHT22;9417;16.484;102.872;2022-09-09T01:35:04;25.80;99.90
18575;DHT22;9417;16.484;102.872;2022-09-09T01:37:13;25.80;99.90
18575;DHT22;9417;16.484;102.872;2022-09-09T01:39:21;25.80;99.90
18575;DHT22;9417;16.484;102.872;2022-09-09T01:41:38;25.70;99.90
18575;DHT22;9417;16.484;102.872;2022-09-09T01:43:48;25.80;99.90
18575;DHT22;9417;16.484;102.872;2022-09-09T01:46:00;25.80;99.90
18575;DHT22;9417;16.484;102.872;2022-09-09T01:48:09;25.80;99.90
18575;DHT22;9417;16.484;102.872;2022-09-09T01:50:21;25.90;99.90
18575;DHT22;9417;16.484;102.872;2022-09-09T01:52:28;25.90;99.90
18575;DHT22;9417;16.484;102.872;2022-09-09T01:54:36;26.00;99.90
18575;DHT22;9417;16.484;102.872;2022-09-09T01:56:58;26.00;99.90
18575;DHT22;9417;16.484;102.872;2022-09-09T01:59:19;26.00;99.90
18575;DHT22;9417;16.484;102.872;2022-09-09T02:01:42;26.10;99.90
18575;DHT22;9417;16.484;102.872;2022-09-09T02:03:56;26.20;99.90
18575;DHT22;9417;16.484;102.872;2022-09-09T02:06:08;26.20;99.90
18575;DHT22;9417;16.484;102.872;2022-09-09T02:08:23;26.20;99.90
18575;DHT22;9417;16.484;102.872;2022-09-09T02:10:45;26.30;99.90
18575;DHT22;9417;16.484;102.872;2022-09-09T02:13:10;26.30;99.90
18575;DHT22;9417;16.484;102.872;2022-09-09T02:15:24;26.30;99.90
18575;DHT22;9417;16.484;102.872;2022-09-09T02:17:36;26.30;99.90
18575;DHT22;9417;16.484;102.872;2022-09-09T02:19:53;26.30;99.90
18575;DHT22;9417;16.484;102.872;2022-09-09T02:22:14;26.30;99.90
18575;DHT22;9417;16.484;102.872;2022-09-09T02:24:23;26.40;99.90
18575;DHT22;9417;16.484;102.872;2022-09-09T02:26:43;26.40;99.90
18575;DHT22;9417;16.484;102.872;2022-09-09T02:28:57;26.50;99.90
18575;DHT22;9417;16.484;102.872;2022-09-09T02:31:06;26.50;99.90
18575;DHT22;9417;16.484;102.872;2022-09-09T02:33:17;26.50;99.90
18575;DHT22;9417;16.484;102.872;2022-09-09T02:35:27;26.50;99.90
18575;DHT22;9417;16.484;102.872;2022-09-09T02:37:37;26.50;99.90
18575;DHT22;9417;16.484;102.872;2022-09-09T02:39:45;26.60;99.90
18575;DHT22;9417;16.484;102.872;2022-09-09T02:41:56;26.60;99.90
18575;DHT22;9417;16.484;102.872;2022-09-09T02:44:12;26.60;99.90
18575;DHT22;9417;16.484;102.872;2022-09-09T02:46:37;26.70;99.90
18575;DHT22;9417;16.484;102.872;2022-09-09T02:48:52;26.70;99.90
18575;DHT22;9417;16.484;102.872;2022-09-09T02:51:10;26.70;99.90
18575;DHT22;9417;16.484;102.872;2022-09-09T02:53:25;26.80;99.90
18575;DHT22;9417;16.484;102.872;2022-09-09T02:55:39;26.80;99.90
18575;DHT22;9417;16.484;102.872;2022-09-09T02:57:49;26.80;99.90
18575;DHT22;9417;16.484;102.872;2022-09-09T02:59:59;26.70;99.90
18575;DHT22;9417;16.484;102.872;2022-09-09T03:02:10;26.70;99.90
18575;DHT22;9417;16.484;102.872;2022-09-09T03:04:20;26.70;99.90
18575;DHT22;9417;16.484;102.872;2022-09-09T03:06:29;26.70;99.90
18575;DHT22;9417;16.484;102.872;2022-09-09T03:08:46;26.60;99.90
18575;DHT22;9417;16.484;102.872;2022-09-09T03:11:00;26.60;99.90
18575;DHT22;9417;16.484;102.872;2022-09-09T03:13:11;26.70;99.90
18575;DHT22;9417;16.484;102.872;2022-09-09T03:15:21;26.60;99.90
18575;DHT22;9417;16.484;102.872;2022-09-09T03:17:29;26.50;99.90
18575;DHT22;9417;16.484;102.872;2022-09-09T03:19:36;26.50;99.90
18575;DHT22;9417;16.484;102.872;2022-09-09T03:21:44;26.50;99.90
18575;DHT22;9417;16.484;102.872;2022-09-09T03:23:51;26.60;99.90
18575;DHT22;9417;16.484;102.872;2022-09-09T03:25:58;26.60;99.90
18575;DHT22;9417;16.484;102.872;2022-09-09T03:28:15;26.60;99.90
18575;DHT22;9417;16.484;102.872;2022-09-09T03:30:24;26.60;99.90
18575;DHT22;9417;16.484;102.872;2022-09-09T03:32:32;26.60;99.90
18575;DHT22;9417;16.484;102.872;2022-09-09T03:34:40;26.60;99.90
18575;DHT22;9417;16.484;102.872;2022-09-09T03:36:49;26.70;99.90
18575;DHT22;9417;16.484;102.872;2022-09-09T03:38:56;26.70;99.90
18575;DHT22;9417;16.484;102.872;2022-09-09T03:41:06;26.70;99.90
18575;DHT22;9417;16.484;102.872;2022-09-09T03:43:14;26.60;99.90
18575;DHT22;9417;16.484;102.872;2022-09-09T03:45:24;26.60;99.90
18575;DHT22;9417;16.484;102.872;2022-09-09T03:47:31;26.60;99.90
18575;DHT22;9417;16.484;102.872;2022-09-09T03:49:41;26.60;99.90
18575;DHT22;9417;16.484;102.872;2022-09-09T03:51:48;26.60;99.90
18575;DHT22;9417;16.484;102.872;2022-09-09T03:53:55;26.50;99.90
18575;DHT22;9417;16.484;102.872;2022-09-09T03:56:05;26.50;99.90
18575;DHT22;9417;16.484;102.872;2022-09-09T03:58:14;26.40;99.90
18575;DHT22;9417;16.484;102.872;2022-09-09T04:00:25;26.30;99.90
18575;DHT22;9417;16.484;102.872;2022-09-09T04:02:32;26.30;99.90
18575;DHT22;9417;16.484;102.872;2022-09-09T04:04:39;26.20;99.90
18575;DHT22;9417;16.484;102.872;2022-09-09T04:06:46;26.20;99.90
18575;DHT22;9417;16.484;102.872;2022-09-09T04:08:53;26.10;99.90
18575;DHT22;9417;16.484;102.872;2022-09-09T04:11:02;26.10;99.90
18575;DHT22;9417;16.484;102.872;2022-09-09T04:13:12;26.20;99.90
18575;DHT22;9417;16.484;102.872;2022-09-09T04:15:21;26.20;99.90
18575;DHT22;9417;16.484;102.872;2022-09-09T04:17:29;26.20;99.90
18575;DHT22;9417;16.484;102.872;2022-09-09T04:19:37;26.30;99.90
18575;DHT22;9417;16.484;102.872;2022-09-09T04:21:44;26.30;99.90
18575;DHT22;9417;16.484;102.872;2022-09-09T04:23:55;26.30;99.90
18575;DHT22;9417;16.484;102.872;2022-09-09T04:26:03;26.40;99.90
18575;DHT22;9417;16.484;102.872;2022-09-09T04:28:10;26.50;99.90
18575;DHT22;9417;16.484;102.872;2022-09-09T04:30:18;26.50;99.90
18575;DHT22;9417;16.484;102.872;2022-09-09T04:32:25;26.60;99.90
18575;DHT22;9417;16.484;102.872;2022-09-09T04:34:35;26.60;99.90
18575;DHT22;9417;16.484;102.872;2022-09-09T04:36:42;26.70;99.90
18575;DHT22;9417;16.484;102.872;2022-09-09T04:38:50;26.70;99.90
18575;DHT22;9417;16.484;102.872;2022-09-09T04:40:57;26.80;99.90
18575;DHT22;9417;16.484;102.872;2022-09-09T04:43:05;26.80;99.90
18575;DHT22;9417;16.484;102.872;2022-09-09T04:45:18;26.80;99.90
18575;DHT22;9417;16.484;102.872;2022-09-09T04:47:26;26.80;99.90
18575;DHT22;9417;16.484;102.872;2022-09-09T04:49:35;26.90;99.90
18575;DHT22;9417;16.484;102.872;2022-09-09T04:51:42;26.90;99.90
18575;DHT22;9417;16.484;102.872;2022-09-09T04:53:53;26.90;99.90
18575;DHT22;9417;16.484;102.872;2022-09-09T04:56:04;26.80;99.90
18575;DHT22;9417;16.484;102.872;2022-09-09T04:58:15;26.90;99.90
18575;DHT22;9417;16.484;102.872;2022-09-09T05:00:23;26.90;99.90
18575;DHT22;9417;16.484;102.872;2022-09-09T05:02:30;26.90;99.90
18575;DHT22;9417;16.484;102.872;2022-09-09T05:04:40;26.90;99.90
18575;DHT22;9417;16.484;102.872;2022-09-09T05:06:48;26.80;99.90
18575;DHT22;9417;16.484;102.872;2022-09-09T05:08:55;26.90;99.90
18575;DHT22;9417;16.484;102.872;2022-09-09T05:11:12;26.90;99.90
18575;DHT22;9417;16.484;102.872;2022-09-09T05:13:20;26.90;99.90
18575;DHT22;9417;16.484;102.872;2022-09-09T05:15:27;26.90;99.80
18575;DHT22;9417;16.484;102.872;2022-09-09T05:17:35;26.90;99.90
18575;DHT22;9417;16.484;102.872;2022-09-09T05:19:44;26.90;99.90
18575;DHT22;9417;16.484;102.872;2022-09-09T05:21:51;26.90;99.90
18575;DHT22;9417;16.484;102.872;2022-09-09T05:24:06;26.90;99.90
18575;DHT22;9417;16.484;102.872;2022-09-09T05:26:16;26.90;99.90
18575;DHT22;9417;16.484;102.872;2022-09-09T05:28:26;26.90;99.90
18575;DHT22;9417;16.484;102.872;2022-09-09T05:30:33;26.90;99.60
18575;DHT22;9417;16.484;102.872;2022-09-09T05:32:42;26.90;99.80
18575;DHT22;9417;16.484;102.872;2022-09-09T05:34:51;26.90;99.90
18575;DHT22;9417;16.484;102.872;2022-09-09T05:36:58;26.90;99.90
18575;DHT22;9417;16.484;102.872;2022-09-09T05:39:05;26.90;99.90
18575;DHT22;9417;16.484;102.872;2022-09-09T05:41:13;27.00;99.90
18575;DHT22;9417;16.484;102.872;2022-09-09T05:43:23;26.90;99.90
18575;DHT22;9417;16.484;102.872;2022-09-09T05:45:31;27.00;99.90
18575;DHT22;9417;16.484;102.872;2022-09-09T05:47:38;27.00;99.90
18575;DHT22;9417;16.484;102.872;2022-09-09T05:49:51;26.90;99.90
18575;DHT22;9417;16.484;102.872;2022-09-09T05:51:58;27.00;99.90
18575;DHT22;9417;16.484;102.872;2022-09-09T05:54:06;26.90;99.90
18575;DHT22;9417;16.484;102.872;2022-09-09T05:56:19;27.00;99.90
18575;DHT22;9417;16.484;102.872;2022-09-09T05:58:28;27.00;99.90
18575;DHT22;9417;16.484;102.872;2022-09-09T06:00:36;27.10;99.90
18575;DHT22;9417;16.484;102.872;2022-09-09T06:02:43;27.10;99.60
18575;DHT22;9417;16.484;102.872;2022-09-09T06:04:52;27.10;99.30
18575;DHT22;9417;16.484;102.872;2022-09-09T06:07:05;27.20;99.00
18575;DHT22;9417;16.484;102.872;2022-09-09T06:09:12;27.20;99.30
18575;DHT22;9417;16.484;102.872;2022-09-09T06:11:21;27.20;99.50
18575;DHT22;9417;16.484;102.872;2022-09-09T06:13:28;27.20;99.60
18575;DHT22;9417;16.484;102.872;2022-09-09T06:15:35;27.10;99.70
18575;DHT22;9417;16.484;102.872;2022-09-09T06:17:42;27.10;99.90
18575;DHT22;9417;16.484;102.872;2022-09-09T06:19:52;27.10;99.90
18575;DHT22;9417;16.484;102.872;2022-09-09T06:21:59;27.10;99.70
18575;DHT22;9417;16.484;102.872;2022-09-09T06:24:09;27.00;99.50
18575;DHT22;9417;16.484;102.872;2022-09-09T06:26:19;26.90;99.30
18575;DHT22;9417;16.484;102.872;2022-09-09T06:28:28;26.80;99.40
18575;DHT22;9417;16.484;102.872;2022-09-09T06:30:35;26.70;99.30
18575;DHT22;9417;16.484;102.872;2022-09-09T06:32:43;26.70;99.30
18575;DHT22;9417;16.484;102.872;2022-09-09T06:34:52;26.60;99.40
18575;DHT22;9417;16.484;102.872;2022-09-09T06:36:59;26.70;99.50
18575;DHT22;9417;16.484;102.872;2022-09-09T06:39:13;26.60;99.80
18575;DHT22;9417;16.484;102.872;2022-09-09T06:41:23;26.60;99.90
18575;DHT22;9417;16.484;102.872;2022-09-09T06:43:32;26.60;99.90
18575;DHT22;9417;16.484;102.872;2022-09-09T06:45:40;26.50;99.90
18575;DHT22;9417;16.484;102.872;2022-09-09T06:47:48;26.50;99.90
18575;DHT22;9417;16.484;102.872;2022-09-09T06:49:57;26.50;99.90
18575;DHT22;9417;16.484;102.872;2022-09-09T06:52:05;26.50;99.90
18575;DHT22;9417;16.484;102.872;2022-09-09T06:54:14;26.50;99.90
18575;DHT22;9417;16.484;102.872;2022-09-09T06:56:23;26.50;99.90
18575;DHT22;9417;16.484;102.872;2022-09-09T06:58:33;26.60;99.90
18575;DHT22;9417;16.484;102.872;2022-09-09T07:00:40;26.50;99.90
18575;DHT22;9417;16.484;102.872;2022-09-09T07:02:48;26.50;99.90
18575;DHT22;9417;16.484;102.872;2022-09-09T07:04:58;26.50;99.90
18575;DHT22;9417;16.484;102.872;2022-09-09T07:07:05;26.50;99.90
18575;DHT22;9417;16.484;102.872;2022-09-09T07:09:14;26.50;99.90
18575;DHT22;9417;16.484;102.872;2022-09-09T07:11:25;26.50;99.90
18575;DHT22;9417;16.484;102.872;2022-09-09T07:13:35;26.60;99.90
18575;DHT22;9417;16.484;102.872;2022-09-09T07:15:43;26.60;99.90
18575;DHT22;9417;16.484;102.872;2022-09-09T07:17:50;26.60;99.90
18575;DHT22;9417;16.484;102.872;2022-09-09T07:20:00;26.60;99.90
18575;DHT22;9417;16.484;102.872;2022-09-09T07:22:08;26.60;99.90
18575;DHT22;9417;16.484;102.872;2022-09-09T07:24:16;26.60;99.90
18575;DHT22;9417;16.484;102.872;2022-09-09T07:26:26;26.60;99.90
18575;DHT22;9417;16.484;102.872;2022-09-09T07:28:36;26.70;99.90
18575;DHT22;9417;16.484;102.872;2022-09-09T07:30:45;26.70;99.90
18575;DHT22;9417;16.484;102.872;2022-09-09T07:32:59;26.70;99.90
18575;DHT22;9417;16.484;102.872;2022-09-09T07:35:10;26.70;99.90
18575;DHT22;9417;16.484;102.872;2022-09-09T07:37:17;26.70;99.90
18575;DHT22;9417;16.484;102.872;2022-09-09T07:39:24;26.70;99.90
18575;DHT22;9417;16.484;102.872;2022-09-09T07:41:33;26.70;99.90
18575;DHT22;9417;16.484;102.872;2022-09-09T07:43:41;26.70;99.90
18575;DHT22;9417;16.484;102.872;2022-09-09T07:45:48;26.70;99.90
18575;DHT22;9417;16.484;102.872;2022-09-09T07:48:04;26.70;99.90
18575;DHT22;9417;16.484;102.872;2022-09-09T07:50:14;26.60;99.90
18575;DHT22;9417;16.484;102.872;2022-09-09T07:52:21;26.70;99.90
18575;DHT22;9417;16.484;102.872;2022-09-09T07:54:32;26.80;99.90
18575;DHT22;9417;16.484;102.872;2022-09-09T07:56:41;26.80;99.90
18575;DHT22;9417;16.484;102.872;2022-09-09T07:58:50;26.90;99.90
18575;DHT22;9417;16.484;102.872;2022-09-09T08:00:58;27.00;99.90
18575;DHT22;9417;16.484;102.872;2022-09-09T08:03:07;27.00;99.90
18575;DHT22;9417;16.484;102.872;2022-09-09T08:05:16;27.10;99.90
18575;DHT22;9417;16.484;102.872;2022-09-09T08:07:25;27.10;99.90
18575;DHT22;9417;16.484;102.872;2022-09-09T08:09:32;27.10;99.90
18575;DHT22;9417;16.484;102.872;2022-09-09T08:11:49;27.00;99.90
18575;DHT22;9417;16.484;102.872;2022-09-09T08:13:56;27.00;99.90
18575;DHT22;9417;16.484;102.872;2022-09-09T08:16:07;27.00;99.90
18575;DHT22;9417;16.484;102.872;2022-09-09T08:18:16;27.00;99.90
18575;DHT22;9417;16.484;102.872;2022-09-09T08:20:25;27.00;99.90
18575;DHT22;9417;16.484;102.872;2022-09-09T08:22:33;26.90;99.90
18575;DHT22;9417;16.484;102.872;2022-09-09T08:24:43;26.90;99.90
18575;DHT22;9417;16.484;102.872;2022-09-09T08:26:51;26.80;99.90
18575;DHT22;9417;16.484;102.872;2022-09-09T08:29:00;26.80;99.80
18575;DHT22;9417;16.484;102.872;2022-09-09T08:31:13;26.70;99.70
18575;DHT22;9417;16.484;102.872;2022-09-09T08:33:21;26.70;99.90
18575;DHT22;9417;16.484;102.872;2022-09-09T08:35:31;26.70;99.70
18575;DHT22;9417;16.484;102.872;2022-09-09T08:37:38;26.70;99.50
18575;DHT22;9417;16.484;102.872;2022-09-09T08:39:46;26.70;99.30
18575;DHT22;9417;16.484;102.872;2022-09-09T08:42:14;26.60;99.20
18575;DHT22;9417;16.484;102.872;2022-09-09T08:44:35;26.60;99.00
18575;DHT22;9417;16.484;102.872;2022-09-09T08:46:54;26.60;99.00
18575;DHT22;9417;16.484;102.872;2022-09-09T08:49:09;26.60;98.90
18575;DHT22;9417;16.484;102.872;2022-09-09T08:51:25;26.60;99.10
18575;DHT22;9417;16.484;102.872;2022-09-09T08:53:40;26.60;99.10
18575;DHT22;9417;16.484;102.872;2022-09-09T08:55:51;26.60;98.90
18575;DHT22;9417;16.484;102.872;2022-09-09T08:58:12;26.60;98.70
18575;DHT22;9417;16.484;102.872;2022-09-09T09:00:22;26.60;98.70
18575;DHT22;9417;16.484;102.872;2022-09-09T09:02:40;26.60;98.80
18575;DHT22;9417;16.484;102.872;2022-09-09T09:05:03;26.50;98.80
18575;DHT22;9417;16.484;102.872;2022-09-09T09:07:16;26.60;98.70
18575;DHT22;9417;16.484;102.872;2022-09-09T09:09:30;26.60;98.60
18575;DHT22;9417;16.484;102.872;2022-09-09T09:11:43;26.60;98.80
18575;DHT22;9417;16.484;102.872;2022-09-09T09:13:54;26.60;98.80
18575;DHT22;9417;16.484;102.872;2022-09-09T09:16:15;26.60;98.80
18575;DHT22;9417;16.484;102.872;2022-09-09T09:18:25;26.60;98.90
18575;DHT22;9417;16.484;102.872;2022-09-09T09:20:39;26.60;98.90
18575;DHT22;9417;16.484;102.872;2022-09-09T09:22:51;26.60;98.70
18575;DHT22;9417;16.484;102.872;2022-09-09T09:25:04;26.60;98.60
18575;DHT22;9417;16.484;102.872;2022-09-09T09:27:27;26.70;98.70
18575;DHT22;9417;16.484;102.872;2022-09-09T09:29:40;26.60;98.70
18575;DHT22;9417;16.484;102.872;2022-09-09T09:32:11;26.70;98.80
18575;DHT22;9417;16.484;102.872;2022-09-09T09:34:20;26.70;99.00
18575;DHT22;9417;16.484;102.872;2022-09-09T09:36:37;26.70;99.00
18575;DHT22;9417;16.484;102.872;2022-09-09T09:38:55;26.70;99.10
18575;DHT22;9417;16.484;102.872;2022-09-09T09:41:34;26.70;99.20
18575;DHT22;9417;16.484;102.872;2022-09-09T09:43:43;26.80;99.20
18575;DHT22;9417;16.484;102.872;2022-09-09T09:46:00;26.70;99.20
18575;DHT22;9417;16.484;102.872;2022-09-09T09:48:20;26.70;99.00
18575;DHT22;9417;16.484;102.872;2022-09-09T09:50:28;26.70;99.20
18575;DHT22;9417;16.484;102.872;2022-09-09T09:52:36;26.80;99.80
18575;DHT22;9417;16.484;102.872;2022-09-09T09:54:47;26.70;99.90
18575;DHT22;9417;16.484;102.872;2022-09-09T09:56:56;26.70;99.90
18575;DHT22;9417;16.484;102.872;2022-09-09T09:59:03;26.60;99.90
18575;DHT22;9417;16.484;102.872;2022-09-09T10:01:28;26.70;99.90
18575;DHT22;9417;16.484;102.872;2022-09-09T10:03:51;26.70;99.90
18575;DHT22;9417;16.484;102.872;2022-09-09T10:05:59;26.70;99.90
18575;DHT22;9417;16.484;102.872;2022-09-09T10:08:11;26.70;99.90
18575;DHT22;9417;16.484;102.872;2022-09-09T10:10:25;26.60;99.90
18575;DHT22;9417;16.484;102.872;2022-09-09T10:12:44;26.70;99.90
18575;DHT22;9417;16.484;102.872;2022-09-09T10:15:00;26.60;99.90
18575;DHT22;9417;16.484;102.872;2022-09-09T10:17:17;26.70;99.90
18575;DHT22;9417;16.484;102.872;2022-09-09T10:19:31;26.60;99.90
18575;DHT22;9417;16.484;102.872;2022-09-09T10:22:05;26.60;99.90
18575;DHT22;9417;16.484;102.872;2022-09-09T10:27:02;26.60;99.90
18575;DHT22;9417;16.484;102.872;2022-09-09T10:31:48;26.50;99.90
18575;DHT22;9417;16.484;102.872;2022-09-09T10:34:02;26.50;99.90
18575;DHT22;9417;16.484;102.872;2022-09-09T10:36:13;26.50;99.90
18575;DHT22;9417;16.484;102.872;2022-09-09T10:38:29;26.60;99.90
18575;DHT22;9417;16.484;102.872;2022-09-09T10:40:41;26.50;99.90
18575;DHT22;9417;16.484;102.872;2022-09-09T10:42:51;26.50;99.90
18575;DHT22;9417;16.484;102.872;2022-09-09T10:45:13;26.50;99.90
18575;DHT22;9417;16.484;102.872;2022-09-09T10:47:38;26.50;99.90
18575;DHT22;9417;16.484;102.872;2022-09-09T10:50:03;26.50;99.90
18575;DHT22;9417;16.484;102.872;2022-09-09T10:52:19;26.50;99.90
18575;DHT22;9417;16.484;102.872;2022-09-09T10:54:38;26.50;99.90
18575;DHT22;9417;16.484;102.872;2022-09-09T10:56:52;26.50;99.90
18575;DHT22;9417;16.484;102.872;2022-09-09T10:59:06;26.50;99.90
18575;DHT22;9417;16.484;102.872;2022-09-09T11:01:20;26.50;99.90
18575;DHT22;9417;16.484;102.872;2022-09-09T11:03:29;26.50;99.90
18575;DHT22;9417;16.484;102.872;2022-09-09T11:05:42;26.40;99.90
18575;DHT22;9417;16.484;102.872;2022-09-09T11:07:54;26.50;99.90
18575;DHT22;9417;16.484;102.872;2022-09-09T11:10:06;26.40;99.90
18575;DHT22;9417;16.484;102.872;2022-09-09T11:12:18;26.40;99.90
18575;DHT22;9417;16.484;102.872;2022-09-09T11:14:31;26.40;99.90
18575;DHT22;9417;16.484;102.872;2022-09-09T11:16:45;26.50;99.90
18575;DHT22;9417;16.484;102.872;2022-09-09T11:18:59;26.50;99.90
18575;DHT22;9417;16.484;102.872;2022-09-09T11:21:13;26.40;99.90
18575;DHT22;9417;16.484;102.872;2022-09-09T11:23:27;26.40;99.90
18575;DHT22;9417;16.484;102.872;2022-09-09T11:25:38;26.40;99.90
18575;DHT22;9417;16.484;102.872;2022-09-09T11:28:00;26.40;99.90
18575;DHT22;9417;16.484;102.872;2022-09-09T11:30:21;26.40;99.90
18575;DHT22;9417;16.484;102.872;2022-09-09T11:33:12;26.40;99.90
18575;DHT22;9417;16.484;102.872;2022-09-09T11:35:45;26.30;99.90
18575;DHT22;9417;16.484;102.872;2022-09-09T11:38:02;26.30;99.90
18575;DHT22;9417;16.484;102.872;2022-09-09T11:40:19;26.30;99.90
18575;DHT22;9417;16.484;102.872;2022-09-09T11:42:28;26.30;99.90
18575;DHT22;9417;16.484;102.872;2022-09-09T11:44:35;26.30;99.90
18575;DHT22;9417;16.484;102.872;2022-09-09T11:46:46;26.20;99.90
18575;DHT22;9417;16.484;102.872;2022-09-09T11:49:00;26.20;99.90
18575;DHT22;9417;16.484;102.872;2022-09-09T11:51:09;26.20;99.90
18575;DHT22;9417;16.484;102.872;2022-09-09T11:53:23;26.20;99.90
18575;DHT22;9417;16.484;102.872;2022-09-09T11:55:31;26.20;99.90
18575;DHT22;9417;16.484;102.872;2022-09-09T11:57:39;26.20;99.90
18575;DHT22;9417;16.484;102.872;2022-09-09T11:59:52;26.10;99.90
18575;DHT22;9417;16.484;102.872;2022-09-09T12:02:02;26.10;99.90
18575;DHT22;9417;16.484;102.872;2022-09-09T12:04:35;26.20;99.90
18575;DHT22;9417;16.484;102.872;2022-09-09T12:06:46;26.20;99.90
18575;DHT22;9417;16.484;102.872;2022-09-09T12:09:12;26.10;99.90
18575;DHT22;9417;16.484;102.872;2022-09-09T12:11:26;26.20;99.90
18575;DHT22;9417;16.484;102.872;2022-09-09T12:13:33;26.20;99.90
18575;DHT22;9417;16.484;102.872;2022-09-09T12:15:48;26.20;99.90
18575;DHT22;9417;16.484;102.872;2022-09-09T12:17:58;26.20;99.90
18575;DHT22;9417;16.484;102.872;2022-09-09T12:20:14;26.20;99.90
18575;DHT22;9417;16.484;102.872;2022-09-09T12:22:31;26.20;99.90
18575;DHT22;9417;16.484;102.872;2022-09-09T12:24:46;26.20;99.90
18575;DHT22;9417;16.484;102.872;2022-09-09T12:27:01;26.20;99.90
18575;DHT22;9417;16.484;102.872;2022-09-09T12:29:25;26.20;99.90
18575;DHT22;9417;16.484;102.872;2022-09-09T12:31:38;26.20;99.90
18575;DHT22;9417;16.484;102.872;2022-09-09T12:33:50;26.20;99.90
18575;DHT22;9417;16.484;102.872;2022-09-09T12:35:58;26.20;99.90
18575;DHT22;9417;16.484;102.872;2022-09-09T12:38:11;26.20;99.90
18575;DHT22;9417;16.484;102.872;2022-09-09T12:40:22;26.20;99.90
18575;DHT22;9417;16.484;102.872;2022-09-09T12:42:30;26.10;99.90
18575;DHT22;9417;16.484;102.872;2022-09-09T12:44:52;26.10;99.90
18575;DHT22;9417;16.484;102.872;2022-09-09T12:47:01;26.10;99.90
18575;DHT22;9417;16.484;102.872;2022-09-09T12:49:29;26.10;99.90
18575;DHT22;9417;16.484;102.872;2022-09-09T12:51:39;26.10;99.90
18575;DHT22;9417;16.484;102.872;2022-09-09T12:53:50;26.10;99.90
18575;DHT22;9417;16.484;102.872;2022-09-09T12:55:59;26.10;99.90
18575;DHT22;9417;16.484;102.872;2022-09-09T12:58:11;26.10;99.90
18575;DHT22;9417;16.484;102.872;2022-09-09T13:00:21;26.10;99.90
18575;DHT22;9417;16.484;102.872;2022-09-09T13:02:29;26.10;99.90
18575;DHT22;9417;16.484;102.872;2022-09-09T13:04:39;26.10;99.90
18575;DHT22;9417;16.484;102.872;2022-09-09T13:06:46;26.10;99.90
18575;DHT22;9417;16.484;102.872;2022-09-09T13:08:54;26.20;99.90
18575;DHT22;9417;16.484;102.872;2022-09-09T13:11:06;26.10;99.90
18575;DHT22;9417;16.484;102.872;2022-09-09T13:13:14;26.10;99.90
18575;DHT22;9417;16.484;102.872;2022-09-09T13:15:23;26.20;99.90
18575;DHT22;9417;16.484;102.872;2022-09-09T13:17:31;26.20;99.90
18575;DHT22;9417;16.484;102.872;2022-09-09T13:19:44;26.20;99.90
18575;DHT22;9417;16.484;102.872;2022-09-09T13:21:52;26.20;99.90
18575;DHT22;9417;16.484;102.872;2022-09-09T13:23:59;26.20;99.90
18575;DHT22;9417;16.484;102.872;2022-09-09T13:26:21;26.20;99.90
18575;DHT22;9417;16.484;102.872;2022-09-09T13:28:30;26.20;99.90
18575;DHT22;9417;16.484;102.872;2022-09-09T13:30:38;26.20;99.90
18575;DHT22;9417;16.484;102.872;2022-09-09T13:32:47;26.20;99.90
18575;DHT22;9417;16.484;102.872;2022-09-09T13:34:57;26.30;99.90
18575;DHT22;9417;16.484;102.872;2022-09-09T13:37:06;26.20;99.90
18575;DHT22;9417;16.484;102.872;2022-09-09T13:39:16;26.20;99.90
18575;DHT22;9417;16.484;102.872;2022-09-09T13:41:25;26.20;99.90
18575;DHT22;9417;16.484;102.872;2022-09-09T13:43:37;26.20;99.90
18575;DHT22;9417;16.484;102.872;2022-09-09T13:45:54;26.20;99.90
18575;DHT22;9417;16.484;102.872;2022-09-09T13:48:10;26.20;99.90